Time;durP1;ratioP1;P1;durP2;ratioP2;P2;SDS_P1;SDS_P2;PMS_P1;PMS_P2;Temp;Humidity;BMP_temperature;BMP_pressure;BME280_temperature;BME280_humidity;BME280_pressure;Samples;Min_cycle;Max_cycle;Signal;HPM_P1;HPM_P2
2024/01/10 00:01:57;;;;;;;0.20;0.20;;;;;;;-3.98;42.16;98114.03;5028735;28;20131;-65
2024/01/10 00:04:24;;;;;;;0.20;0.20;;;;;;;-3.33;43.95;98182.47;5046595;28;20057;-62
2024/01/10 00:06:51;;;;;;;0.20;0.20;;;;;;;-6.19;43.14;97689.81;5059461;28;20601;-61
2024/01/10 00:09:17;;;;;;;0.10;0.10;;;;;;;-3.73;43.41;98111.63;5066614;28;20068;-61
2024/01/10 00:11:44;;;;;;;0.13;0.13;;;;;;;-3.36;42.54;98161.31;5065991;28;20041;-61
2024/01/10 00:14:11;;;;;;;0.20;0.20;;;;;;;-3.24;43.01;98192.59;5066467;28;20056;-62
2024/01/10 00:16:38;;;;;;;0.20;0.20;;;;;;;-3.99;43.43;98134.00;5066523;28;20058;-63
2024/01/10 00:19:04;;;;;;;0.17;0.17;;;;;;;-3.02;43.54;98194.44;5066863;28;20118;-62
2024/01/10 00:21:31;;;;;;;0.20;0.20;;;;;;;-3.19;42.45;98205.38;5066238;28;20044;-63
2024/01/10 00:23:58;;;;;;;0.10;0.10;;;;;;;-3.20;42.05;98199.16;5066166;28;20525;-64
2024/01/10 00:26:25;;;;;;;0.20;0.20;;;;;;;-3.49;42.15;98172.53;5066215;28;20899;-61
2024/01/10 00:28:52;;;;;;;0.20;0.20;;;;;;;-3.91;42.69;98082.16;5066441;28;20088;-62
2024/01/10 00:31:18;;;;;;;0.20;0.20;;;;;;;-3.27;42.01;98186.84;5047926;28;20040;-63
2024/01/10 00:33:45;;;;;;;0.10;0.10;;;;;;;-3.23;42.58;98199.66;5047723;28;20057;-63
2024/01/10 00:36:12;;;;;;;0.20;0.20;;;;;;;-3.37;41.86;98203.00;5065744;28;20048;-61
2024/01/10 00:38:39;;;;;;;0.10;0.10;;;;;;;-3.33;41.82;98196.00;5065891;28;20064;-64
2024/01/10 00:41:07;;;;;;;0.10;0.10;;;;;;;-3.60;42.23;98170.75;5047630;28;20511;-63
2024/01/10 00:43:34;;;;;;;0.10;0.10;;;;;;;-3.69;42.92;98161.47;5066170;28;20060;-63
2024/01/10 00:46:00;;;;;;;0.20;0.20;;;;;;;-3.49;42.60;98211.25;5065785;28;20485;-61
2024/01/10 00:48:27;;;;;;;0.20;0.20;;;;;;;-3.41;42.94;98218.13;5065604;28;20049;-61
2024/01/10 00:50:54;;;;;;;0.10;0.10;;;;;;;-3.54;42.36;98213.09;5047694;28;20110;-61
2024/01/10 00:53:21;;;;;;;0.15;0.15;;;;;;;-3.68;41.88;98184.75;5065581;28;20083;-62
2024/01/10 00:55:48;;;;;;;0.15;0.15;;;;;;;-3.58;41.40;98218.19;5065588;28;20063;-64
2024/01/10 00:58:15;;;;;;;0.20;0.20;;;;;;;-3.67;41.29;98186.41;5065574;28;20090;-62
2024/01/10 01:00:42;;;;;;;0.10;0.10;;;;;;;-4.12;41.34;98134.38;5065442;28;20438;-62
2024/01/10 01:03:09;;;;;;;0.20;0.20;;;;;;;-3.67;40.62;98208.06;5065179;28;20134;-62
2024/01/10 01:05:36;;;;;;;0.10;0.10;;;;;;;-3.75;41.07;98205.78;5065292;28;20048;-63
2024/01/10 01:08:03;;;;;;;0.10;0.10;;;;;;;-3.68;41.25;98190.16;5065475;28;20109;-62
2024/01/10 01:10:30;;;;;;;0.10;0.10;;;;;;;-3.76;41.75;98169.75;5065295;28;20049;-62
2024/01/10 01:12:59;;;;;;;0.10;0.10;;;;;;;-3.68;41.49;98207.22;5047524;28;20071;-61
2024/01/10 01:15:26;;;;;;;0.20;0.20;;;;;;;-4.05;41.41;98140.44;5047470;28;20059;-61
2024/01/10 01:17:53;;;;;;;0.17;0.17;;;;;;;-3.67;42.17;98202.63;5065191;28;20060;-63
2024/01/10 01:20:19;;;;;;;0.20;0.20;;;;;;;-3.58;41.84;98222.78;5047435;28;20815;-62
2024/01/10 01:22:46;;;;;;;0.10;0.10;;;;;;;-3.35;42.13;98206.28;5047218;28;20064;-62
2024/01/10 01:25:13;;;;;;;0.10;0.10;;;;;;;-3.43;41.48;98204.03;5064712;28;20503;-62
2024/01/10 01:27:40;;;;;;;0.20;0.20;;;;;;;-3.62;40.99;98178.34;5047106;28;20049;-62
2024/01/10 01:30:07;;;;;;;0.20;0.20;;;;;;;-3.86;40.52;98122.81;5027492;28;20443;-63
2024/01/10 01:32:34;;;;;;;0.20;0.20;;;;;;;-3.37;40.66;98203.00;5059981;28;20049;-63
2024/01/10 01:35:01;;;;;;;0.20;0.20;;;;;;;-3.56;40.15;98209.81;5045268;28;20063;-63
2024/01/10 01:37:27;;;;;;;0.15;0.15;;;;;;;-3.70;40.68;98149.00;5044600;28;20080;-63
2024/01/10 01:39:54;;;;;;;0.10;0.10;;;;;;;-3.43;41.05;98176.94;5044373;28;20053;-64
2024/01/10 01:42:21;;;;;;;0.20;0.20;;;;;;;-3.26;41.00;98193.94;5044689;28;20053;-62
2024/01/10 01:44:48;;;;;;;0.20;0.20;;;;;;;-3.17;40.66;98192.38;5044356;28;20699;-62
2024/01/10 01:47:15;;;;;;;0.20;0.20;;;;;;;-3.31;40.12;98202.00;5044557;28;20502;-62
2024/01/10 01:49:42;;;;;;;0.20;0.20;;;;;;;-3.12;40.01;98195.16;5026705;28;20049;-63
2024/01/10 01:52:11;;;;;;;0.20;0.20;;;;;;;-3.18;40.30;98188.84;5044509;28;20491;-63
2024/01/10 01:54:37;;;;;;;0.15;0.15;;;;;;;-5.61;39.34;97772.84;5026593;28;20503;-64
2024/01/10 01:57:04;;;;;;;0.20;0.20;;;;;;;-3.24;38.90;98186.38;5044699;28;20631;-64
2024/01/10 01:59:32;;;;;;;0.20;0.20;;;;;;;-2.83;39.80;98193.84;5059695;28;20115;-63
2024/01/10 02:02:03;;;;;;;0.20;0.20;;;;;;;-2.86;38.85;98194.31;5028545;28;20065;-65
2024/01/10 02:04:30;;;;;;;0.10;0.10;;;;;;;-2.83;39.24;98187.59;5044566;28;20049;-62
2024/01/10 02:06:57;;;;;;;0.20;0.20;;;;;;;-2.91;39.60;98158.25;5055241;28;20048;-62
2024/01/10 02:09:24;;;;;;;0.20;0.20;;;;;;;-2.62;39.35;98181.25;5046320;28;20053;-63
2024/01/10 02:11:51;;;;;;;0.20;0.20;;;;;;;-2.58;40.54;98172.38;5063969;28;20052;-62
2024/01/10 02:14:18;;;;;;;0.20;0.20;;;;;;;-2.63;39.86;98172.31;5046205;28;20052;-62
2024/01/10 02:16:45;;;;;;;0.20;0.20;;;;;;;-2.56;39.96;98161.25;5046006;28;20056;-63
2024/01/10 02:19:20;;;;;;;0.17;0.17;;;;;;;-2.49;40.21;98168.09;5064585;28;20600;-62
2024/01/10 02:21:47;;;;;;;0.20;0.20;;;;;;;-2.38;41.63;98161.66;5064012;28;20053;-63
2024/01/10 02:24:14;;;;;;;0.13;0.13;;;;;;;-4.59;39.69;97816.94;5064464;28;20062;-64
2024/01/10 02:26:41;;;;;;;0.20;0.20;;;;;;;-2.44;39.80;98165.44;5064459;28;20511;-63
2024/01/10 02:29:09;;;;;;;0.13;0.13;;;;;;;-2.53;40.58;98169.66;5046292;28;20389;-63
2024/01/10 02:31:36;;;;;;;0.20;0.20;;;;;;;-3.32;40.74;98045.97;5046312;28;20056;-62
2024/01/10 02:34:03;;;;;;;0.20;0.20;;;;;;;-2.41;40.49;98164.91;5063757;28;20060;-62
2024/01/10 02:36:30;;;;;;;0.10;0.10;;;;;;;-2.51;40.02;98161.31;5063868;28;20151;-64
2024/01/10 02:38:56;;;;;;;0.20;0.20;;;;;;;-2.81;39.16;98104.13;5045901;28;20056;-61
2024/01/10 02:41:23;;;;;;;0.20;0.20;;;;;;;-2.54;39.72;98164.50;5063788;28;20590;-62
2024/01/10 02:43:50;;;;;;;0.10;0.10;;;;;;;-2.89;39.85;98086.44;5064068;28;20511;-65
2024/01/10 02:46:18;;;;;;;0.20;0.20;;;;;;;-3.14;39.66;98099.75;5064346;28;20063;-63
2024/01/10 02:48:46;;;;;;;0.20;0.20;;;;;;;-2.77;39.03;98164.88;5064017;28;20055;-62
2024/01/10 02:51:13;;;;;;;0.20;0.20;;;;;;;-2.70;39.39;98152.72;5063883;28;20082;-64
2024/01/10 02:53:40;;;;;;;0.20;0.20;;;;;;;-3.21;38.98;98055.84;5045483;28;20056;-62
2024/01/10 02:56:07;;;;;;;0.10;0.10;;;;;;;-2.54;39.62;98162.63;5066346;28;20044;-62
2024/01/10 02:58:34;;;;;;;0.20;0.20;;;;;;;-2.57;40.41;98154.19;5049756;28;20545;-62
2024/01/10 03:01:01;;;;;;;0.20;0.20;;;;;;;-2.51;39.59;98148.53;5067635;28;20106;-62
2024/01/10 03:03:28;;;;;;;0.20;0.20;;;;;;;-2.52;39.70;98160.47;5049697;28;20056;-62
2024/01/10 03:05:55;;;;;;;0.20;0.20;;;;;;;-2.90;38.72;98133.59;5067651;28;20124;-62
2024/01/10 03:08:22;;;;;;;0.10;0.10;;;;;;;-2.97;39.16;98157.38;5067598;28;20131;-61
2024/01/10 03:10:48;;;;;;;0.20;0.20;;;;;;;-2.91;39.00;98137.38;5067633;28;20057;-62
2024/01/10 03:13:15;;;;;;;0.20;0.20;;;;;;;-2.70;39.71;98146.50;5067571;28;20385;-63
2024/01/10 03:15:42;;;;;;;0.20;0.20;;;;;;;-3.05;39.82;98125.31;5049705;28;20435;-62
2024/01/10 03:18:08;;;;;;;0.10;0.10;;;;;;;-2.90;38.50;98157.97;5049381;28;20049;-61
2024/01/10 03:20:35;;;;;;;0.10;0.10;;;;;;;-2.85;39.11;98130.94;5067148;28;20143;-62
2024/01/10 03:23:02;;;;;;;0.10;0.10;;;;;;;-2.65;40.10;98152.78;5049792;28;20045;-63
2024/01/10 03:25:29;;;;;;;0.20;0.20;;;;;;;-2.50;40.41;98154.78;5067000;28;20657;-63
2024/01/10 03:27:56;;;;;;;0.13;0.13;;;;;;;-2.40;40.21;98152.97;5067178;28;20052;-63
2024/01/10 03:30:24;;;;;;;0.20;0.20;;;;;;;-2.43;39.74;98142.63;5067190;28;20056;-63
2024/01/10 03:32:51;;;;;;;0.10;0.10;;;;;;;-2.52;40.05;98157.75;5049120;28;20066;-63
2024/01/10 03:35:18;;;;;;;0.20;0.20;;;;;;;-2.39;40.49;98151.91;5066879;28;20067;-63
2024/01/10 03:37:45;;;;;;;0.20;0.20;;;;;;;-2.69;41.30;98081.19;5066649;28;20080;-63
2024/01/10 03:40:12;;;;;;;0.20;0.20;;;;;;;-2.26;41.67;98139.78;5066749;28;20051;-62
2024/01/10 03:42:39;;;;;;;0.20;0.20;;;;;;;-2.15;42.19;98146.91;5066813;28;20044;-64
2024/01/10 03:45:06;;;;;;;0.20;0.20;;;;;;;-2.18;40.93;98142.81;5048941;28;20136;-63
2024/01/10 03:47:32;;;;;;;0.20;0.20;;;;;;;-2.23;40.67;98142.75;5058403;28;20061;-62
2024/01/10 03:49:59;;;;;;;0.20;0.20;;;;;;;-2.18;41.30;98142.81;5047132;28;20484;-63
2024/01/10 03:52:26;;;;;;;0.20;0.20;;;;;;;-2.10;41.51;98150.44;5046439;28;20136;-63
2024/01/10 03:54:53;;;;;;;0.20;0.20;;;;;;;-2.13;40.87;98126.56;5028927;28;20414;-63
2024/01/10 03:57:20;;;;;;;0.20;0.20;;;;;;;-2.06;41.62;98119.00;5046806;28;20055;-63
2024/01/10 03:59:46;;;;;;;0.20;0.20;;;;;;;-2.02;40.98;98136.38;5062174;28;20664;-62
2024/01/10 04:02:13;;;;;;;0.20;0.20;;;;;;;-2.03;41.00;98140.19;5046564;28;20476;-62
2024/01/10 04:04:40;;;;;;;0.20;0.20;;;;;;;-1.88;41.49;98137.53;5061771;28;20060;-63
2024/01/10 04:07:07;;;;;;;0.20;0.20;;;;;;;-2.05;42.56;98128.78;5054859;28;20052;-63
2024/01/10 04:09:34;;;;;;;0.10;0.10;;;;;;;-1.86;42.87;98151.69;5066857;28;20082;-63
2024/01/10 04:12:01;;;;;;;0.20;0.20;;;;;;;-1.90;42.63;98145.13;5048490;28;20056;-63
2024/01/10 04:14:27;;;;;;;0.20;0.20;;;;;;;-1.96;42.04;98148.91;5066675;28;20048;-63
2024/01/10 04:16:54;;;;;;;0.20;0.20;;;;;;;-2.69;41.70;98043.22;5066245;28;20053;-63
2024/01/10 04:19:21;;;;;;;0.20;0.20;;;;;;;-2.21;42.02;98099.09;5043070;28;20573;-63
2024/01/10 04:21:48;;;;;;;0.20;0.20;;;;;;;-2.39;42.08;98065.09;5046154;28;20060;-63
2024/01/10 04:24:15;;;;;;;0.20;0.20;;;;;;;-2.40;41.32;98071.59;5046422;28;20056;-63
2024/01/10 04:26:42;;;;;;;0.10;0.10;;;;;;;-2.02;41.82;98149.97;5046074;28;20064;-65
2024/01/10 04:29:08;;;;;;;0.20;0.20;;;;;;;-2.11;41.55;98127.13;5044836;28;20136;-63
2024/01/10 04:31:35;;;;;;;0.20;0.20;;;;;;;-2.49;41.93;98086.72;5046055;28;20057;-64
2024/01/10 04:34:03;;;;;;;0.13;0.13;;;;;;;-2.29;43.25;98149.25;5046245;28;20078;-64
2024/01/10 04:36:29;;;;;;;0.20;0.20;;;;;;;-2.45;43.83;98163.78;5044462;28;20159;-64
2024/01/10 04:38:57;;;;;;;0.20;0.20;;;;;;;-2.86;44.54;98085.91;5045585;28;20086;-63
2024/01/10 04:41:23;;;;;;;0.10;0.10;;;;;;;-4.83;44.88;97775.91;5045624;28;20052;-62
2024/01/10 04:43:51;;;;;;;0.10;0.10;;;;;;;-2.46;44.93;98167.56;5045828;28;20056;-62
2024/01/10 04:46:18;;;;;;;0.20;0.20;;;;;;;-2.49;44.95;98162.66;5045243;28;20176;-63
2024/01/10 04:48:45;;;;;;;0.20;0.20;;;;;;;-2.48;45.19;98164.28;5046198;28;20052;-64
2024/01/10 04:51:12;;;;;;;0.20;0.20;;;;;;;-3.86;44.31;97960.47;5044348;28;20577;-63
2024/01/10 04:53:38;;;;;;;0.10;0.10;;;;;;;-2.64;45.07;98165.25;5044275;28;20102;-62
2024/01/10 04:56:05;;;;;;;0.20;0.20;;;;;;;-3.20;45.84;98071.81;5044101;28;20507;-64
2024/01/10 04:58:36;;;;;;;0.20;0.20;;;;;;;-3.41;45.49;98039.38;5044024;28;20060;-63
2024/01/10 05:01:03;;;;;;;0.20;0.20;;;;;;;-3.34;45.30;98078.75;5045832;28;20053;-65
2024/01/10 05:03:30;;;;;;;0.20;0.20;;;;;;;-4.46;45.40;97895.75;5045476;28;20057;-63
2024/01/10 05:05:57;;;;;;;0.20;0.20;;;;;;;-2.77;46.23;98168.41;5045565;28;20496;-63
2024/01/10 05:08:24;;;;;;;0.20;0.20;;;;;;;-2.74;45.10;98165.19;5044168;28;20959;-63
2024/01/10 05:10:51;;;;;;;0.10;0.10;;;;;;;-3.16;45.11;98091.06;5045337;28;20136;-62
2024/01/10 05:13:18;;;;;;;0.10;0.10;;;;;;;-2.76;45.76;98172.75;5043955;28;20048;-64
2024/01/10 05:15:45;;;;;;;0.20;0.20;;;;;;;-3.21;47.14;98175.03;5044936;28;20262;-63
2024/01/10 05:18:12;;;;;;;0.15;0.15;;;;;;;-3.51;47.41;98044.72;5044566;28;20075;-63
2024/01/10 05:20:38;;;;;;;0.20;0.20;;;;;;;-2.75;47.34;98174.38;5044563;28;20045;-62
2024/01/10 05:23:05;;;;;;;0.20;0.20;;;;;;;-3.32;47.90;98135.38;5045131;28;20056;-62
2024/01/10 05:25:32;;;;;;;0.20;0.20;;;;;;;-2.66;47.83;98178.25;5035231;28;20512;-62
2024/01/10 05:27:59;;;;;;;0.20;0.20;;;;;;;-2.69;47.43;98178.78;5025056;28;20053;-63
2024/01/10 05:30:26;;;;;;;0.20;0.20;;;;;;;-3.36;48.29;98101.72;5024785;28;20049;-62
2024/01/10 05:32:55;;;;;;;0.10;0.10;;;;;;;-3.14;48.45;98165.63;5040098;28;20050;-62
2024/01/10 05:35:22;;;;;;;0.20;0.20;;;;;;;-2.94;48.58;98185.84;5025211;28;20084;-62
2024/01/10 05:37:49;;;;;;;0.20;0.20;;;;;;;-3.58;49.12;98098.25;5024517;28;20111;-63
2024/01/10 05:40:17;;;;;;;0.20;0.20;;;;;;;-2.99;49.54;98199.34;5056676;28;20059;-64
2024/01/10 05:42:44;;;;;;;0.20;0.20;;;;;;;-3.68;50.09;98088.13;5024704;28;20056;-64
2024/01/10 05:45:11;;;;;;;0.10;0.10;;;;;;;-3.11;49.90;98185.94;5040306;28;20037;-61
2024/01/10 05:47:38;;;;;;;0.20;0.20;;;;;;;-3.59;49.96;98123.69;5043542;28;20503;-62
2024/01/10 05:50:06;;;;;;;0.20;0.20;;;;;;;-3.98;50.21;98178.97;5044410;28;20526;-62
2024/01/10 05:52:33;;;;;;;0.10;0.10;;;;;;;-3.29;51.18;98194.44;5043077;28;20142;-63
2024/01/10 05:55:02;;;;;;;0.20;0.20;;;;;;;-3.12;51.20;98201.41;5043349;28;20148;-62
2024/01/10 05:57:30;;;;;;;0.20;0.20;;;;;;;-3.12;51.57;98195.16;5043860;28;20124;-61
2024/01/10 05:59:57;;;;;;;0.20;0.20;;;;;;;-3.32;50.92;98165.16;5044796;28;20067;-62
2024/01/10 06:02:24;;;;;;;0.20;0.20;;;;;;;-3.47;52.19;98202.88;5043687;28;20061;-61
2024/01/10 06:04:51;;;;;;;0.20;0.20;;;;;;;-3.27;51.96;98192.28;5043417;28;20048;-61
2024/01/10 06:07:18;;;;;;;0.20;0.20;;;;;;;-3.27;51.00;98203.94;5043642;28;20156;-62
2024/01/10 06:09:45;;;;;;;0.20;0.20;;;;;;;-3.20;51.39;98220.00;5043776;28;20065;-63
2024/01/10 06:12:12;;;;;;;0.20;0.20;;;;;;;-3.30;51.87;98209.84;5043529;28;20295;-63
2024/01/10 06:14:39;;;;;;;0.20;0.20;;;;;;;-4.02;53.38;98112.88;5043738;28;20503;-62
2024/01/10 06:17:06;;;;;;;0.10;0.10;;;;;;;-3.40;53.92;98230.59;5043797;28;20442;-62
2024/01/10 06:19:33;;;;;;;0.10;0.10;;;;;;;-3.37;53.49;98224.69;5043011;28;20568;-61
2024/01/10 06:21:59;;;;;;;0.10;0.10;;;;;;;-3.37;53.34;98224.69;5042997;28;20435;-61
2024/01/10 06:24:26;;;;;;;0.10;0.10;;;;;;;-3.36;53.71;98229.84;5044495;28;20133;-62
2024/01/10 06:26:53;;;;;;;0.10;0.10;;;;;;;-3.86;53.26;98128.25;5044007;28;20884;-62
2024/01/10 06:29:20;;;;;;;0.20;0.20;;;;;;;-3.24;52.99;98245.97;5033617;28;20057;-60
2024/01/10 06:31:47;;;;;;;0.17;0.17;;;;;;;-3.38;53.99;98250.09;5042865;28;20503;-62
2024/01/10 06:34:14;;;;;;;0.13;0.13;;;;;;;-4.65;54.21;98065.50;5026436;28;20536;-62
2024/01/10 06:36:41;;;;;;;0.20;0.20;;;;;;;-3.47;54.80;98257.03;5043659;28;20106;-62
2024/01/10 06:39:12;;;;;;;0.10;0.10;;;;;;;-4.09;55.15;98166.34;5025745;28;20105;-63
2024/01/10 06:41:42;;;;;;;;;;;;;;;-3.33;54.82;98255.59;5044316;28;20439;-63
2024/01/10 06:44:09;;;;;;;0.10;0.10;;;;;;;-3.54;55.36;98242.88;5044155;28;20015;-61
2024/01/10 06:46:36;;;;;;;0.20;0.20;;;;;;;-3.34;56.47;98256.66;5025928;28;20048;-63
2024/01/10 06:49:03;;;;;;;0.20;0.20;;;;;;;-3.16;56.53;98254.44;5043965;28;20118;-62
2024/01/10 06:51:30;;;;;;;0.10;0.10;;;;;;;-3.04;56.57;98253.50;5043830;28;20094;-62
2024/01/10 06:54:03;;;;;;;0.20;0.20;;;;;;;-2.89;56.39;98270.75;5044049;28;20060;-62
2024/01/10 06:56:31;;;;;;;0.20;0.20;;;;;;;-2.93;56.27;98250.66;5025565;28;20060;-61
2024/01/10 06:58:59;;;;;;;0.20;0.20;;;;;;;-3.48;55.50;98142.47;5043957;28;20081;-62
2024/01/10 07:01:27;;;;;;;0.20;0.20;;;;;;;-3.35;56.36;98163.75;5040705;28;20494;-59
2024/01/10 07:03:54;;;;;;;0.20;0.20;;;;;;;-3.46;55.70;98177.44;5025269;28;20056;-68
2024/01/10 07:06:22;;;;;;;0.20;0.20;;;;;;;-2.77;54.33;98268.72;5042687;28;20225;-60
2024/01/10 07:08:52;;;;;;;0.10;0.10;;;;;;;-2.73;55.60;98269.81;5041437;28;20057;-65
2024/01/10 07:11:21;;;;;;;0.15;0.15;;;;;;;-4.00;54.36;98043.91;5042297;28;20508;-65
2024/01/10 07:13:49;;;;;;;0.20;0.20;;;;;;;-3.35;53.87;98158.34;5042482;28;20143;-62
2024/01/10 07:16:16;;;;;;;0.20;0.20;;;;;;;-5.35;54.04;97867.38;5042224;28;20593;-62
2024/01/10 07:18:44;;;;;;;0.13;0.13;;;;;;;-3.65;53.66;98119.28;5044310;28;20048;-62
2024/01/10 07:21:11;;;;;;;0.20;0.20;;;;;;;-2.71;54.48;98278.53;5042501;28;20049;-62
2024/01/10 07:23:40;;;;;;;0.20;0.20;;;;;;;-2.78;54.86;98283.31;5042155;28;20471;-66
2024/01/10 07:26:07;;;;;;;0.20;0.20;;;;;;;-2.62;54.09;98289.72;5041545;28;20051;-66
2024/01/10 07:28:34;;;;;;;0.20;0.20;;;;;;;-2.63;54.89;98286.22;5042562;28;20045;-62
2024/01/10 07:31:02;;;;;;;0.20;0.20;;;;;;;-2.83;55.00;98226.38;5042687;28;20045;-67
2024/01/10 07:33:30;;;;;;;0.20;0.20;;;;;;;-2.51;54.96;98265.16;5042843;28;20099;-63
2024/01/10 07:36:01;;;;;;;0.20;0.20;;;;;;;-2.23;54.91;98286.56;5042498;28;20048;-67
2024/01/10 07:38:28;;;;;;;0.20;0.20;;;;;;;-2.32;54.55;98249.31;5042785;28;20064;-63
2024/01/10 07:40:55;;;;;;;0.20;0.20;;;;;;;-2.04;54.81;98285.09;5042113;28;20555;-67
2024/01/10 07:43:22;;;;;;;0.20;0.20;;;;;;;-1.91;54.30;98284.66;5045561;28;20051;-65
2024/01/10 07:45:49;;;;;;;0.20;0.20;;;;;;;-1.99;53.75;98238.22;5048963;28;20049;-69
2024/01/10 07:48:16;;;;;;;0.20;0.20;;;;;;;-3.86;53.24;97911.75;5028252;28;20067;-66
2024/01/10 07:50:43;;;;;;;0.20;0.20;;;;;;;-1.21;52.58;98283.47;5048145;28;20049;-64
2024/01/10 07:53:09;;;;;;;0.10;0.10;;;;;;;-1.86;52.64;98186.97;5026593;28;20050;-66
2024/01/10 07:55:36;;;;;;;0.20;0.20;;;;;;;-1.74;51.74;98163.13;5030522;28;20048;-64
2024/01/10 07:58:05;;;;;;;0.20;0.20;;;;;;;-1.31;51.30;98250.81;5046277;28;20464;-64
2024/01/10 08:00:32;;;;;;;0.20;0.20;;;;;;;-1.06;52.46;98269.94;5046748;28;20041;-64
2024/01/10 08:02:59;;;;;;;0.20;0.20;;;;;;;-1.87;52.08;98144.63;5027601;28;20088;-63
2024/01/10 08:05:26;;;;;;;0.20;0.20;;;;;;;-1.33;51.52;98226.63;5031485;28;20132;-65
2024/01/10 08:07:53;;;;;;;0.20;0.20;;;;;;;-0.94;51.85;98284.13;5043907;28;20512;-63
2024/01/10 08:10:20;;;;;;;0.20;0.20;;;;;;;-3.09;51.85;97918.28;5044857;28;20052;-62
2024/01/10 08:12:46;;;;;;;0.20;0.20;;;;;;;-0.83;51.42;98258.59;5045471;28;20056;-64
2024/01/10 08:15:14;;;;;;;0.10;0.10;;;;;;;-0.60;51.60;98296.22;5046509;28;20057;-64
2024/01/10 08:17:41;;;;;;;0.20;0.20;;;;;;;-0.92;51.35;98189.50;5045939;28;20051;-64
2024/01/10 08:20:10;;;;;;;0.20;0.20;;;;;;;-0.40;50.79;98258.16;5028162;28;20064;-63
2024/01/10 08:22:38;;;;;;;0.15;0.15;;;;;;;-0.08;50.24;98277.78;5045755;28;20143;-65
2024/01/10 08:25:05;;;;;;;0.20;0.20;;;;;;;-0.01;49.75;98283.75;5046126;28;20053;-61
2024/01/10 08:27:33;;;;;;;0.20;0.20;;;;;;;-0.47;49.34;98214.03;5045646;28;20065;-63
2024/01/10 08:30:00;;;;;;;0.20;0.20;;;;;;;-0.12;47.79;98224.94;5046293;28;20136;-64
2024/01/10 08:32:27;;;;;;;0.20;0.20;;;;;;;0.38;47.44;98281.28;5027479;28;20053;-63
2024/01/10 08:34:54;;;;;;;0.22;0.22;;;;;;;-0.36;47.26;98150.34;5045964;28;20091;-64
2024/01/10 08:37:21;;;;;;;0.20;0.20;;;;;;;0.47;47.24;98275.00;5045243;28;20052;-64
2024/01/10 08:39:50;;;;;;;0.20;0.20;;;;;;;0.18;46.51;98214.00;5045287;28;20377;-65
2024/01/10 08:42:17;;;;;;;0.20;0.20;;;;;;;0.36;46.52;98246.13;5044755;28;20049;-62
2024/01/10 08:44:44;;;;;;;0.20;0.20;;;;;;;0.36;45.73;98229.78;5045942;28;20049;-68
2024/01/10 08:47:11;;;;;;;0.20;0.20;;;;;;;0.84;43.55;98275.44;5044632;28;20599;-67
2024/01/10 08:49:38;;;;;;;0.20;0.20;;;;;;;0.87;43.13;98263.97;5045955;28;20056;-70
2024/01/10 08:52:05;;;;;;;0.20;0.20;;;;;;;0.92;42.63;98272.13;5045439;28;20110;-62
2024/01/10 08:54:32;;;;;;;0.20;0.20;;;;;;;1.00;43.20;98349.84;5045454;28;20488;-65
2024/01/10 08:57:00;;;;;;;0.20;0.20;;;;;;;0.69;41.67;98278.22;5044695;28;20452;-65
2024/01/10 08:59:27;;;;;;;0.20;0.20;;;;;;;0.18;40.74;98129.56;5027975;28;20132;-66
2024/01/10 09:01:54;;;;;;;0.20;0.20;;;;;;;0.95;40.23;98214.28;5026538;28;20131;-67
2024/01/10 09:04:21;;;;;;;0.20;0.20;;;;;;;1.30;40.33;98260.50;5027553;28;20048;-64
2024/01/10 09:06:48;;;;;;;0.20;0.20;;;;;;;1.55;39.02;98252.16;5044476;28;20059;-64
2024/01/10 09:09:15;;;;;;;0.20;0.20;;;;;;;1.47;37.58;98246.50;5045585;28;20801;-63
2024/01/10 09:11:41;;;;;;;0.20;0.20;;;;;;;1.49;38.18;98245.13;5044912;28;20375;-62
2024/01/10 09:14:11;;;;;;;0.20;0.20;;;;;;;0.07;38.21;98021.75;5045457;28;20106;-62
2024/01/10 09:16:38;;;;;;;0.20;0.20;;;;;;;1.67;38.37;98249.09;5044326;28;20438;-66
2024/01/10 09:19:05;;;;;;;0.20;0.20;;;;;;;1.77;37.80;98245.47;5045011;28;20059;-65
2024/01/10 09:21:37;;;;;;;0.20;0.20;;;;;;;1.95;37.68;98231.09;5044787;28;20080;-59
2024/01/10 09:24:08;;;;;;;0.20;0.20;;;;;;;2.06;38.87;98232.66;5045133;28;20055;-64
2024/01/10 09:26:53;;;;;;;0.20;0.20;;;;;;;2.39;39.58;98237.25;5043296;28;20041;-61
2024/01/10 09:29:20;;;;;;;0.20;0.20;;;;;;;2.39;38.50;98215.38;5026905;28;20069;-63
2024/01/10 09:31:47;;;;;;;0.20;0.20;;;;;;;1.35;38.61;98066.69;5029205;28;20045;-61
2024/01/10 09:34:14;;;;;;;0.20;0.20;;;;;;;2.16;39.44;98222.47;5044960;28;20055;-64
2024/01/10 09:36:41;;;;;;;0.20;0.20;;;;;;;2.14;38.60;98218.38;5028217;28;20052;-63
2024/01/10 09:39:13;;;;;;;0.20;0.20;;;;;;;1.08;39.02;98104.56;5039541;28;20540;-72
2024/01/10 09:41:50;;;;;;;0.20;0.20;;;;;;;2.35;37.50;98217.91;5044237;28;20474;-63
2024/01/10 09:44:21;;;;;;;0.20;0.20;;;;;;;2.50;38.33;98220.47;5044512;28;20055;-71
2024/01/10 09:46:51;;;;;;;0.22;0.22;;;;;;;2.34;38.61;98163.53;5045573;28;20048;-65
2024/01/10 09:49:21;;;;;;;0.20;0.20;;;;;;;2.68;38.55;98183.34;5025610;28;20055;-65
2024/01/10 09:51:49;;;;;;;0.20;0.20;;;;;;;3.04;38.20;98211.91;5042906;28;20129;-62
2024/01/10 09:54:16;;;;;;;0.20;0.20;;;;;;;3.19;37.39;98206.25;5044058;28;20080;-65
2024/01/10 09:56:45;;;;;;;0.20;0.20;;;;;;;2.40;37.15;98085.81;5042891;28;20634;-63
2024/01/10 09:59:12;;;;;;;0.30;0.30;;;;;;;2.89;36.45;98176.53;5044186;28;20052;-67
2024/01/10 10:01:39;;;;;;;0.20;0.20;;;;;;;2.47;37.21;98124.53;5043812;28;20053;-68
2024/01/10 10:04:09;;;;;;;0.30;0.30;;;;;;;2.82;37.38;98126.81;5044252;28;20075;-66
2024/01/10 10:06:36;;;;;;;0.30;0.30;;;;;;;3.04;36.14;98157.16;5044078;28;20060;-65
2024/01/10 10:09:03;;;;;;;0.30;0.30;;;;;;;3.26;36.45;98153.84;5043777;28;20064;-63
2024/01/10 10:11:30;;;;;;;0.30;0.30;;;;;;;3.49;35.58;98186.63;5039310;28;20049;-66
2024/01/10 10:14:14;;;;;;;0.30;0.30;;;;;;;3.37;35.30;98186.25;5033782;28;20055;-67
2024/01/10 10:16:41;;;;;;;0.28;0.28;;;;;;;2.84;35.51;98075.34;5031237;28;20049;-66
2024/01/10 10:19:09;;;;;;;0.30;0.30;;;;;;;0.60;36.26;97726.50;5025608;28;20106;-71
2024/01/10 10:21:36;;;;;;;0.30;0.30;;;;;;;3.91;36.02;98171.97;5043192;28;20084;-68
2024/01/10 10:24:08;;;;;;;0.30;0.30;;;;;;;3.70;36.38;98135.88;5025959;28;20048;-68
2024/01/10 10:26:35;;;;;;;0.30;0.30;;;;;;;3.07;36.69;98058.84;5024984;28;20522;-62
2024/01/10 10:29:02;;;;;;;0.30;0.30;;;;;;;3.34;35.65;98164.94;5044123;28;20052;-66
2024/01/10 10:31:31;;;;;;;0.30;0.30;;;;;;;3.15;36.08;98169.59;5043874;28;20041;-62
2024/01/10 10:34:01;;;;;;;0.30;0.30;;;;;;;3.37;36.63;98169.81;5041431;28;20463;-62
2024/01/10 10:36:31;;;;;;;0.25;0.25;;;;;;;2.89;36.98;98154.63;5025465;28;20052;-64
2024/01/10 10:39:02;;;;;;;0.20;0.20;;;;;;;3.62;37.03;98161.19;5042805;28;20057;-63
2024/01/10 10:41:32;;;;;;;0.20;0.20;;;;;;;3.79;36.55;98147.78;5049198;28;20057;-62
2024/01/10 10:44:00;;;;;;;0.30;0.30;;;;;;;2.80;36.28;98008.66;5024564;28;20071;-64
2024/01/10 10:46:27;;;;;;;0.30;0.30;;;;;;;3.84;36.78;98147.69;5024396;28;20512;-65
2024/01/10 10:49:00;;;;;;;0.20;0.20;;;;;;;3.79;36.87;98114.09;5046786;28;21412;-62
2024/01/10 10:51:36;;;;;;;0.30;0.30;;;;;;;3.45;36.36;98174.63;5041677;28;20535;-68
2024/01/10 10:54:04;;;;;;;0.30;0.30;;;;;;;1.76;37.03;98041.72;5039652;28;20072;-66
2024/01/10 10:56:36;;;;;;;0.20;0.20;;;;;;;2.10;37.37;98015.13;5042862;28;20065;-65
2024/01/10 10:59:04;;;;;;;0.20;0.20;;;;;;;3.13;36.96;98106.09;5043557;28;20319;-63
2024/01/10 11:01:32;;;;;;;0.20;0.20;;;;;;;3.22;36.34;98139.94;5043092;28;20045;-67
2024/01/10 11:03:59;;;;;;;0.20;0.20;;;;;;;3.03;37.04;98067.97;5043345;28;20068;-65
2024/01/10 11:06:27;;;;;;;0.20;0.20;;;;;;;3.33;36.59;98126.91;5042989;28;20048;-64
2024/01/10 11:09:02;;;;;;;0.20;0.20;;;;;;;3.63;37.18;98110.81;5044012;28;20071;-63
2024/01/10 11:11:35;;;;;;;0.30;0.30;;;;;;;3.99;35.99;98131.00;5043032;28;20076;-64
2024/01/10 11:14:23;;;;;;;0.30;0.30;;;;;;;4.12;36.04;98124.72;5043364;28;20064;-65
2024/01/10 11:16:53;;;;;;;0.20;0.20;;;;;;;3.67;36.40;98122.78;5041763;28;20053;-65
2024/01/10 11:19:28;;;;;;;0.30;0.30;;;;;;;3.89;37.11;98113.94;5046813;28;20194;-64
2024/01/10 11:21:55;;;;;;;0.30;0.30;;;;;;;3.97;36.67;98110.47;5046752;28;20055;-64
2024/01/10 11:24:24;;;;;;;0.20;0.20;;;;;;;4.41;37.71;98111.53;5047110;28;20080;-68
2024/01/10 11:27:05;;;;;;;0.30;0.30;;;;;;;3.99;37.35;98040.53;5046343;28;20045;-68
2024/01/10 11:29:32;;;;;;;0.30;0.30;;;;;;;4.53;37.03;98103.63;5027622;28;20068;-65
2024/01/10 11:31:59;;;;;;;0.20;0.20;;;;;;;4.39;36.28;98064.38;5045036;28;20057;-66
2024/01/10 11:34:27;;;;;;;0.30;0.30;;;;;;;4.74;36.11;98094.97;5027591;28;20055;-68
2024/01/10 11:37:11;;;;;;;0.30;0.30;;;;;;;4.96;37.08;98084.88;5026495;28;20428;-69
2024/01/10 11:39:43;;;;;;;0.30;0.30;;;;;;;4.68;36.48;98033.06;5044908;28;20447;-65